sensor_id;sensor_type;location;lat;lon;timestamp;temperature;humidity
44886;DHT22;36669;51.428;21.162;2022-08-26T00:02:01;17.20;99.90
44886;DHT22;36669;51.428;21.162;2022-08-26T00:04:27;17.10;99.90
44886;DHT22;36669;51.428;21.162;2022-08-26T00:06:53;17.00;99.90
44886;DHT22;36669;51.428;21.162;2022-08-26T00:09:20;17.00;99.90
44886;DHT22;36669;51.428;21.162;2022-08-26T00:11:46;16.90;99.90
44886;DHT22;36669;51.428;21.162;2022-08-26T00:14:12;16.80;99.90
44886;DHT22;36669;51.428;21.162;2022-08-26T00:16:37;16.80;99.90
44886;DHT22;36669;51.428;21.162;2022-08-26T00:19:03;16.70;99.90
44886;DHT22;36669;51.428;21.162;2022-08-26T00:21:28;16.70;99.90
44886;DHT22;36669;51.428;21.162;2022-08-26T00:23:54;16.60;99.90
44886;DHT22;36669;51.428;21.162;2022-08-26T00:26:20;16.60;99.90
44886;DHT22;36669;51.428;21.162;2022-08-26T00:28:45;16.50;99.90
44886;DHT22;36669;51.428;21.162;2022-08-26T00:31:12;16.50;99.90
44886;DHT22;36669;51.428;21.162;2022-08-26T00:33:38;16.50;99.90
44886;DHT22;36669;51.428;21.162;2022-08-26T00:36:05;16.40;99.90
44886;DHT22;36669;51.428;21.162;2022-08-26T00:38:31;16.40;99.90
44886;DHT22;36669;51.428;21.162;2022-08-26T00:40:56;16.50;99.90
44886;DHT22;36669;51.428;21.162;2022-08-26T00:43:23;16.60;99.90
44886;DHT22;36669;51.428;21.162;2022-08-26T00:46:01;16.80;99.90
44886;DHT22;36669;51.428;21.162;2022-08-26T00:48:28;16.80;99.90
44886;DHT22;36669;51.428;21.162;2022-08-26T00:51:10;16.80;99.90
44886;DHT22;36669;51.428;21.162;2022-08-26T00:53:42;16.70;99.90
44886;DHT22;36669;51.428;21.162;2022-08-26T00:56:37;16.60;99.90
44886;DHT22;36669;51.428;21.162;2022-08-26T00:59:08;16.50;99.90
44886;DHT22;36669;51.428;21.162;2022-08-26T01:01:35;16.40;99.90
44886;DHT22;36669;51.428;21.162;2022-08-26T01:04:01;16.40;99.90
44886;DHT22;36669;51.428;21.162;2022-08-26T01:06:27;16.40;99.90
44886;DHT22;36669;51.428;21.162;2022-08-26T01:08:53;16.30;99.90
44886;DHT22;36669;51.428;21.162;2022-08-26T01:11:19;16.30;99.90
44886;DHT22;36669;51.428;21.162;2022-08-26T01:13:47;16.20;99.90
44886;DHT22;36669;51.428;21.162;2022-08-26T01:16:15;16.20;99.90
44886;DHT22;36669;51.428;21.162;2022-08-26T01:18:42;16.10;99.90
44886;DHT22;36669;51.428;21.162;2022-08-26T01:21:43;16.00;99.90
44886;DHT22;36669;51.428;21.162;2022-08-26T01:24:11;16.00;99.90
44886;DHT22;36669;51.428;21.162;2022-08-26T01:26:39;15.90;99.90
44886;DHT22;36669;51.428;21.162;2022-08-26T01:29:06;16.00;99.90
44886;DHT22;36669;51.428;21.162;2022-08-26T01:31:37;16.20;99.90
44886;DHT22;36669;51.428;21.162;2022-08-26T01:36:33;16.20;99.90
44886;DHT22;36669;51.428;21.162;2022-08-26T01:38:58;16.20;99.90
44886;DHT22;36669;51.428;21.162;2022-08-26T01:41:24;16.10;99.90
44886;DHT22;36669;51.428;21.162;2022-08-26T01:43:53;16.00;99.90
44886;DHT22;36669;51.428;21.162;2022-08-26T01:46:21;15.80;99.90
44886;DHT22;36669;51.428;21.162;2022-08-26T01:48:48;15.80;99.90
44886;DHT22;36669;51.428;21.162;2022-08-26T01:51:15;15.70;99.90
44886;DHT22;36669;51.428;21.162;2022-08-26T01:53:41;15.70;99.90
44886;DHT22;36669;51.428;21.162;2022-08-26T01:56:08;15.60;99.90
44886;DHT22;36669;51.428;21.162;2022-08-26T01:58:46;15.60;99.90
44886;DHT22;36669;51.428;21.162;2022-08-26T02:01:13;15.50;99.90
44886;DHT22;36669;51.428;21.162;2022-08-26T02:03:50;15.50;99.90
44886;DHT22;36669;51.428;21.162;2022-08-26T02:06:18;15.40;99.90
44886;DHT22;36669;51.428;21.162;2022-08-26T02:08:48;15.40;99.90
44886;DHT22;36669;51.428;21.162;2022-08-26T02:11:15;15.30;99.90
44886;DHT22;36669;51.428;21.162;2022-08-26T02:13:44;15.30;99.90
44886;DHT22;36669;51.428;21.162;2022-08-26T02:16:10;15.30;99.90
44886;DHT22;36669;51.428;21.162;2022-08-26T02:18:39;15.30;99.90
44886;DHT22;36669;51.428;21.162;2022-08-26T02:21:06;15.30;99.90
44886;DHT22;36669;51.428;21.162;2022-08-26T02:23:33;15.30;99.90
44886;DHT22;36669;51.428;21.162;2022-08-26T02:26:14;15.30;99.90
44886;DHT22;36669;51.428;21.162;2022-08-26T02:28:54;15.30;99.90
44886;DHT22;36669;51.428;21.162;2022-08-26T02:31:20;15.30;99.90
44886;DHT22;36669;51.428;21.162;2022-08-26T02:33:46;15.20;99.90
44886;DHT22;36669;51.428;21.162;2022-08-26T02:36:12;15.20;99.90
44886;DHT22;36669;51.428;21.162;2022-08-26T02:38:42;15.20;99.90
44886;DHT22;36669;51.428;21.162;2022-08-26T02:41:07;15.10;99.90
44886;DHT22;36669;51.428;21.162;2022-08-26T02:43:34;15.10;99.90
44886;DHT22;36669;51.428;21.162;2022-08-26T02:46:01;15.10;99.90
44886;DHT22;36669;51.428;21.162;2022-08-26T02:48:27;15.10;99.90
44886;DHT22;36669;51.428;21.162;2022-08-26T02:50:52;15.10;99.90
44886;DHT22;36669;51.428;21.162;2022-08-26T02:53:18;15.10;99.90
44886;DHT22;36669;51.428;21.162;2022-08-26T02:55:43;15.00;99.90
44886;DHT22;36669;51.428;21.162;2022-08-26T02:58:09;15.00;99.90
44886;DHT22;36669;51.428;21.162;2022-08-26T03:00:36;15.10;99.90
44886;DHT22;36669;51.428;21.162;2022-08-26T03:03:02;15.10;99.90
44886;DHT22;36669;51.428;21.162;2022-08-26T03:05:28;15.10;99.90
44886;DHT22;36669;51.428;21.162;2022-08-26T03:07:53;15.10;99.90
44886;DHT22;36669;51.428;21.162;2022-08-26T03:10:20;15.10;99.90
44886;DHT22;36669;51.428;21.162;2022-08-26T03:12:46;15.10;99.90
44886;DHT22;36669;51.428;21.162;2022-08-26T03:15:14;15.20;99.90
44886;DHT22;36669;51.428;21.162;2022-08-26T03:17:42;15.30;99.90
44886;DHT22;36669;51.428;21.162;2022-08-26T03:20:08;15.40;99.90
44886;DHT22;36669;51.428;21.162;2022-08-26T03:22:37;15.60;99.90
44886;DHT22;36669;51.428;21.162;2022-08-26T03:25:06;15.70;99.90
44886;DHT22;36669;51.428;21.162;2022-08-26T03:27:33;15.70;99.90
44886;DHT22;36669;51.428;21.162;2022-08-26T03:29:59;15.70;99.90
44886;DHT22;36669;51.428;21.162;2022-08-26T03:32:26;15.70;99.90
44886;DHT22;36669;51.428;21.162;2022-08-26T03:34:51;15.70;99.90
44886;DHT22;36669;51.428;21.162;2022-08-26T03:37:17;15.60;99.90
44886;DHT22;36669;51.428;21.162;2022-08-26T03:39:43;15.40;99.90
44886;DHT22;36669;51.428;21.162;2022-08-26T03:42:09;15.40;99.90
44886;DHT22;36669;51.428;21.162;2022-08-26T03:44:36;15.30;99.90
44886;DHT22;36669;51.428;21.162;2022-08-26T03:47:01;15.40;99.90
44886;DHT22;36669;51.428;21.162;2022-08-26T03:49:27;15.40;99.90
44886;DHT22;36669;51.428;21.162;2022-08-26T03:51:52;15.50;99.90
44886;DHT22;36669;51.428;21.162;2022-08-26T03:54:18;15.60;99.90
44886;DHT22;36669;51.428;21.162;2022-08-26T03:56:43;15.50;99.90
44886;DHT22;36669;51.428;21.162;2022-08-26T03:59:10;15.40;99.90
44886;DHT22;36669;51.428;21.162;2022-08-26T04:01:37;15.30;99.90
44886;DHT22;36669;51.428;21.162;2022-08-26T04:04:04;15.30;99.90
44886;DHT22;36669;51.428;21.162;2022-08-26T04:06:36;15.20;99.90
44886;DHT22;36669;51.428;21.162;2022-08-26T04:09:08;15.20;99.90
44886;DHT22;36669;51.428;21.162;2022-08-26T04:11:35;15.10;99.90
44886;DHT22;36669;51.428;21.162;2022-08-26T04:14:04;15.10;99.90
44886;DHT22;36669;51.428;21.162;2022-08-26T04:16:30;15.00;99.90
44886;DHT22;36669;51.428;21.162;2022-08-26T04:18:57;15.00;99.90
44886;DHT22;36669;51.428;21.162;2022-08-26T04:21:23;15.00;99.90
44886;DHT22;36669;51.428;21.162;2022-08-26T04:23:49;15.10;99.90
44886;DHT22;36669;51.428;21.162;2022-08-26T04:26:20;15.10;99.90
44886;DHT22;36669;51.428;21.162;2022-08-26T04:28:47;15.20;99.90
44886;DHT22;36669;51.428;21.162;2022-08-26T04:31:14;15.20;99.90
44886;DHT22;36669;51.428;21.162;2022-08-26T04:33:41;15.20;99.90
44886;DHT22;36669;51.428;21.162;2022-08-26T04:36:06;15.30;99.90
44886;DHT22;36669;51.428;21.162;2022-08-26T04:38:32;15.30;99.90
44886;DHT22;36669;51.428;21.162;2022-08-26T04:40:58;15.40;99.90
44886;DHT22;36669;51.428;21.162;2022-08-26T04:43:24;15.50;99.90
44886;DHT22;36669;51.428;21.162;2022-08-26T04:45:49;15.50;99.90
44886;DHT22;36669;51.428;21.162;2022-08-26T04:48:15;15.60;99.90
44886;DHT22;36669;51.428;21.162;2022-08-26T04:50:40;15.70;99.90
44886;DHT22;36669;51.428;21.162;2022-08-26T04:53:06;15.80;99.90
44886;DHT22;36669;51.428;21.162;2022-08-26T04:55:31;15.90;99.90
44886;DHT22;36669;51.428;21.162;2022-08-26T04:57:57;16.10;99.90
44886;DHT22;36669;51.428;21.162;2022-08-26T05:00:22;16.20;99.90
44886;DHT22;36669;51.428;21.162;2022-08-26T05:02:48;16.30;99.90
44886;DHT22;36669;51.428;21.162;2022-08-26T05:05:13;16.40;99.90
44886;DHT22;36669;51.428;21.162;2022-08-26T05:07:40;16.50;99.90
44886;DHT22;36669;51.428;21.162;2022-08-26T05:10:06;16.60;99.90
44886;DHT22;36669;51.428;21.162;2022-08-26T05:12:32;16.80;99.90
44886;DHT22;36669;51.428;21.162;2022-08-26T05:14:57;16.80;99.90
44886;DHT22;36669;51.428;21.162;2022-08-26T05:17:23;17.00;99.90
44886;DHT22;36669;51.428;21.162;2022-08-26T05:19:48;17.10;99.90
44886;DHT22;36669;51.428;21.162;2022-08-26T05:22:14;17.20;99.90
44886;DHT22;36669;51.428;21.162;2022-08-26T05:24:40;17.30;99.90
44886;DHT22;36669;51.428;21.162;2022-08-26T05:27:06;17.40;99.90
44886;DHT22;36669;51.428;21.162;2022-08-26T05:29:32;17.50;99.90
44886;DHT22;36669;51.428;21.162;2022-08-26T05:31:58;17.50;99.90
44886;DHT22;36669;51.428;21.162;2022-08-26T05:34:23;17.60;99.90
44886;DHT22;36669;51.428;21.162;2022-08-26T05:36:49;17.70;99.90
44886;DHT22;36669;51.428;21.162;2022-08-26T05:39:14;17.80;99.90
44886;DHT22;36669;51.428;21.162;2022-08-26T05:41:41;17.90;99.90
44886;DHT22;36669;51.428;21.162;2022-08-26T05:44:09;18.00;99.90
44886;DHT22;36669;51.428;21.162;2022-08-26T05:46:35;18.20;99.90
44886;DHT22;36669;51.428;21.162;2022-08-26T05:49:02;18.30;99.90
44886;DHT22;36669;51.428;21.162;2022-08-26T05:51:27;18.50;99.90
44886;DHT22;36669;51.428;21.162;2022-08-26T05:53:53;18.60;99.90
44886;DHT22;36669;51.428;21.162;2022-08-26T05:56:18;18.80;99.90
44886;DHT22;36669;51.428;21.162;2022-08-26T05:58:44;18.90;99.90
44886;DHT22;36669;51.428;21.162;2022-08-26T06:01:16;19.10;99.90
44886;DHT22;36669;51.428;21.162;2022-08-26T06:03:45;19.30;99.90
44886;DHT22;36669;51.428;21.162;2022-08-26T06:06:14;19.40;99.90
44886;DHT22;36669;51.428;21.162;2022-08-26T06:08:40;19.50;99.90
44886;DHT22;36669;51.428;21.162;2022-08-26T06:11:08;19.70;99.90
44886;DHT22;36669;51.428;21.162;2022-08-26T06:13:34;19.70;99.90
44886;DHT22;36669;51.428;21.162;2022-08-26T06:16:03;19.80;99.90
44886;DHT22;36669;51.428;21.162;2022-08-26T06:18:31;19.80;99.90
44886;DHT22;36669;51.428;21.162;2022-08-26T06:20:58;19.90;99.90
44886;DHT22;36669;51.428;21.162;2022-08-26T06:23:25;20.00;99.90
44886;DHT22;36669;51.428;21.162;2022-08-26T06:25:51;20.00;99.90
44886;DHT22;36669;51.428;21.162;2022-08-26T06:28:17;20.10;99.90
44886;DHT22;36669;51.428;21.162;2022-08-26T06:30:42;20.20;99.90
44886;DHT22;36669;51.428;21.162;2022-08-26T06:33:08;20.30;99.90
44886;DHT22;36669;51.428;21.162;2022-08-26T06:35:40;20.40;99.90
44886;DHT22;36669;51.428;21.162;2022-08-26T06:38:07;20.50;99.90
44886;DHT22;36669;51.428;21.162;2022-08-26T06:40:48;20.70;99.90
44886;DHT22;36669;51.428;21.162;2022-08-26T06:43:16;20.80;99.90
44886;DHT22;36669;51.428;21.162;2022-08-26T06:45:43;20.90;99.90
44886;DHT22;36669;51.428;21.162;2022-08-26T06:48:08;21.10;99.90
44886;DHT22;36669;51.428;21.162;2022-08-26T06:50:34;21.20;99.90
44886;DHT22;36669;51.428;21.162;2022-08-26T06:52:59;21.30;99.90
44886;DHT22;36669;51.428;21.162;2022-08-26T06:55:25;21.50;99.90
44886;DHT22;36669;51.428;21.162;2022-08-26T06:57:50;21.70;99.90
44886;DHT22;36669;51.428;21.162;2022-08-26T07:00:16;21.80;99.90
44886;DHT22;36669;51.428;21.162;2022-08-26T07:02:42;21.90;99.90
44886;DHT22;36669;51.428;21.162;2022-08-26T07:05:09;22.00;99.90
44886;DHT22;36669;51.428;21.162;2022-08-26T07:07:34;22.20;99.90
44886;DHT22;36669;51.428;21.162;2022-08-26T07:10:00;22.30;99.90
44886;DHT22;36669;51.428;21.162;2022-08-26T07:12:26;22.40;99.90
44886;DHT22;36669;51.428;21.162;2022-08-26T07:14:51;22.60;99.90
44886;DHT22;36669;51.428;21.162;2022-08-26T07:17:17;22.80;99.90
44886;DHT22;36669;51.428;21.162;2022-08-26T07:19:43;22.90;99.90
44886;DHT22;36669;51.428;21.162;2022-08-26T07:22:08;23.00;99.90
44886;DHT22;36669;51.428;21.162;2022-08-26T07:24:36;23.20;99.90
44886;DHT22;36669;51.428;21.162;2022-08-26T07:27:07;23.30;99.90
44886;DHT22;36669;51.428;21.162;2022-08-26T07:29:34;23.50;99.90
44886;DHT22;36669;51.428;21.162;2022-08-26T07:32:01;23.70;99.90
44886;DHT22;36669;51.428;21.162;2022-08-26T07:34:27;23.70;99.90
44886;DHT22;36669;51.428;21.162;2022-08-26T07:36:53;23.90;99.90
44886;DHT22;36669;51.428;21.162;2022-08-26T07:39:18;24.10;99.90
44886;DHT22;36669;51.428;21.162;2022-08-26T07:41:44;24.20;99.90
44886;DHT22;36669;51.428;21.162;2022-08-26T07:44:11;24.30;99.90
44886;DHT22;36669;51.428;21.162;2022-08-26T07:46:37;24.50;99.90
44886;DHT22;36669;51.428;21.162;2022-08-26T07:49:02;24.60;99.90
44886;DHT22;36669;51.428;21.162;2022-08-26T07:51:28;24.70;99.90
44886;DHT22;36669;51.428;21.162;2022-08-26T07:53:53;24.90;99.90
44886;DHT22;36669;51.428;21.162;2022-08-26T07:56:23;24.90;99.90
44886;DHT22;36669;51.428;21.162;2022-08-26T07:58:50;25.10;99.90
44886;DHT22;36669;51.428;21.162;2022-08-26T08:01:15;25.20;99.90
44886;DHT22;36669;51.428;21.162;2022-08-26T08:03:41;25.40;99.90
44886;DHT22;36669;51.428;21.162;2022-08-26T08:06:07;25.50;99.90
44886;DHT22;36669;51.428;21.162;2022-08-26T08:08:32;25.50;99.90
44886;DHT22;36669;51.428;21.162;2022-08-26T08:10:58;25.70;99.90
44886;DHT22;36669;51.428;21.162;2022-08-26T08:13:23;25.80;99.90
44886;DHT22;36669;51.428;21.162;2022-08-26T08:15:50;25.90;99.90
44886;DHT22;36669;51.428;21.162;2022-08-26T08:18:16;26.00;99.90
44886;DHT22;36669;51.428;21.162;2022-08-26T08:20:42;26.10;99.90
44886;DHT22;36669;51.428;21.162;2022-08-26T08:23:07;26.20;99.90
44886;DHT22;36669;51.428;21.162;2022-08-26T08:25:33;26.20;99.90
44886;DHT22;36669;51.428;21.162;2022-08-26T08:27:58;26.30;99.90
44886;DHT22;36669;51.428;21.162;2022-08-26T08:30:25;26.40;99.90
44886;DHT22;36669;51.428;21.162;2022-08-26T08:32:51;26.40;99.90
44886;DHT22;36669;51.428;21.162;2022-08-26T08:35:18;26.40;99.90
44886;DHT22;36669;51.428;21.162;2022-08-26T08:37:44;26.40;99.90
44886;DHT22;36669;51.428;21.162;2022-08-26T08:40:11;26.50;99.90
44886;DHT22;36669;51.428;21.162;2022-08-26T08:42:50;26.60;99.90
44886;DHT22;36669;51.428;21.162;2022-08-26T08:45:30;26.60;99.90
44886;DHT22;36669;51.428;21.162;2022-08-26T08:48:00;26.70;99.90
44886;DHT22;36669;51.428;21.162;2022-08-26T08:50:30;26.80;99.90
44886;DHT22;36669;51.428;21.162;2022-08-26T08:58:20;27.10;99.90
44886;DHT22;36669;51.428;21.162;2022-08-26T09:01:07;27.20;99.90
44886;DHT22;36669;51.428;21.162;2022-08-26T09:04:09;27.40;99.90
44886;DHT22;36669;51.428;21.162;2022-08-26T09:06:37;27.40;99.90
44886;DHT22;36669;51.428;21.162;2022-08-26T09:09:03;27.50;99.90
44886;DHT22;36669;51.428;21.162;2022-08-26T09:11:30;27.50;99.90
44886;DHT22;36669;51.428;21.162;2022-08-26T09:13:55;27.60;99.90
44886;DHT22;36669;51.428;21.162;2022-08-26T09:16:39;27.60;99.90
44886;DHT22;36669;51.428;21.162;2022-08-26T09:19:39;27.60;99.90
44886;DHT22;36669;51.428;21.162;2022-08-26T09:22:06;27.50;99.50
44886;DHT22;36669;51.428;21.162;2022-08-26T09:24:33;27.50;99.90
44886;DHT22;36669;51.428;21.162;2022-08-26T09:27:00;27.60;99.30
44886;DHT22;36669;51.428;21.162;2022-08-26T09:29:31;27.60;99.20
44886;DHT22;36669;51.428;21.162;2022-08-26T09:32:16;27.70;99.00
44886;DHT22;36669;51.428;21.162;2022-08-26T09:35:28;27.80;98.10
44886;DHT22;36669;51.428;21.162;2022-08-26T09:37:54;28.00;97.40
44886;DHT22;36669;51.428;21.162;2022-08-26T09:40:29;28.20;97.00
44886;DHT22;36669;51.428;21.162;2022-08-26T09:43:14;28.30;96.30
44886;DHT22;36669;51.428;21.162;2022-08-26T09:45:42;28.60;94.00
44886;DHT22;36669;51.428;21.162;2022-08-26T09:48:08;28.80;91.80
44886;DHT22;36669;51.428;21.162;2022-08-26T09:50:51;28.90;90.90
44886;DHT22;36669;51.428;21.162;2022-08-26T09:54:04;29.20;91.80
44886;DHT22;36669;51.428;21.162;2022-08-26T09:56:23;29.60;92.20
44886;DHT22;36669;51.428;21.162;2022-08-26T09:58:49;29.80;92.20
44886;DHT22;36669;51.428;21.162;2022-08-26T10:01:39;30.00;87.80
44886;DHT22;36669;51.428;21.162;2022-08-26T10:04:19;30.30;88.00
44886;DHT22;36669;51.428;21.162;2022-08-26T10:07:01;30.60;87.60
44886;DHT22;36669;51.428;21.162;2022-08-26T10:09:28;30.60;83.80
44886;DHT22;36669;51.428;21.162;2022-08-26T10:12:05;30.70;82.20
44886;DHT22;36669;51.428;21.162;2022-08-26T10:14:36;30.90;81.90
44886;DHT22;36669;51.428;21.162;2022-08-26T10:17:10;30.90;82.70
44886;DHT22;36669;51.428;21.162;2022-08-26T10:19:41;30.90;82.90
44886;DHT22;36669;51.428;21.162;2022-08-26T10:22:35;31.40;80.30
44886;DHT22;36669;51.428;21.162;2022-08-26T10:25:00;31.50;78.80
44886;DHT22;36669;51.428;21.162;2022-08-26T10:27:47;31.80;76.40
44886;DHT22;36669;51.428;21.162;2022-08-26T10:30:21;32.30;74.40
44886;DHT22;36669;51.428;21.162;2022-08-26T10:33:07;32.40;72.50
44886;DHT22;36669;51.428;21.162;2022-08-26T10:35:35;32.70;67.80
44886;DHT22;36669;51.428;21.162;2022-08-26T10:38:06;32.30;69.60
44886;DHT22;36669;51.428;21.162;2022-08-26T10:40:39;32.60;68.20
44886;DHT22;36669;51.428;21.162;2022-08-26T10:43:25;33.00;69.80
44886;DHT22;36669;51.428;21.162;2022-08-26T10:45:54;33.20;66.20
44886;DHT22;36669;51.428;21.162;2022-08-26T10:50:57;32.50;63.60
44886;DHT22;36669;51.428;21.162;2022-08-26T10:56:10;32.50;64.00
44886;DHT22;36669;51.428;21.162;2022-08-26T10:58:46;32.30;63.80
44886;DHT22;36669;51.428;21.162;2022-08-26T11:01:19;32.40;63.80
44886;DHT22;36669;51.428;21.162;2022-08-26T11:06:26;32.40;65.20
44886;DHT22;36669;51.428;21.162;2022-08-26T11:08:54;32.50;64.90
44886;DHT22;36669;51.428;21.162;2022-08-26T11:16:55;32.40;63.30
44886;DHT22;36669;51.428;21.162;2022-08-26T11:22:07;32.30;63.20
44886;DHT22;36669;51.428;21.162;2022-08-26T11:40:07;32.10;56.50
44886;DHT22;36669;51.428;21.162;2022-08-26T11:45:30;32.00;59.30
44886;DHT22;36669;51.428;21.162;2022-08-26T11:47:56;32.40;56.30
44886;DHT22;36669;51.428;21.162;2022-08-26T11:50:27;32.70;57.50
44886;DHT22;36669;51.428;21.162;2022-08-26T11:52:55;33.10;56.80
44886;DHT22;36669;51.428;21.162;2022-08-26T11:55:22;33.40;56.70
44886;DHT22;36669;51.428;21.162;2022-08-26T11:57:50;33.50;56.20
44886;DHT22;36669;51.428;21.162;2022-08-26T12:01:02;33.70;55.80
44886;DHT22;36669;51.428;21.162;2022-08-26T12:03:07;33.80;55.30
44886;DHT22;36669;51.428;21.162;2022-08-26T12:05:42;33.80;56.20
44886;DHT22;36669;51.428;21.162;2022-08-26T12:08:11;33.40;56.60
44886;DHT22;36669;51.428;21.162;2022-08-26T12:10:38;33.30;56.30
44886;DHT22;36669;51.428;21.162;2022-08-26T12:13:05;33.30;55.40
44886;DHT22;36669;51.428;21.162;2022-08-26T12:15:32;33.20;56.20
44886;DHT22;36669;51.428;21.162;2022-08-26T12:18:16;33.00;55.70
44886;DHT22;36669;51.428;21.162;2022-08-26T12:20:42;32.90;55.60
44886;DHT22;36669;51.428;21.162;2022-08-26T12:23:07;33.20;56.60
44886;DHT22;36669;51.428;21.162;2022-08-26T12:25:33;33.60;56.90
44886;DHT22;36669;51.428;21.162;2022-08-26T12:28:02;33.80;56.00
44886;DHT22;36669;51.428;21.162;2022-08-26T12:30:29;34.00;55.30
44886;DHT22;36669;51.428;21.162;2022-08-26T12:33:08;34.40;54.50
44886;DHT22;36669;51.428;21.162;2022-08-26T12:35:37;34.80;53.20
44886;DHT22;36669;51.428;21.162;2022-08-26T12:38:04;35.20;52.80
44886;DHT22;36669;51.428;21.162;2022-08-26T12:42:56;35.80;52.40
44886;DHT22;36669;51.428;21.162;2022-08-26T12:45:39;35.90;52.70
44886;DHT22;36669;51.428;21.162;2022-08-26T12:51:21;36.20;49.60
44886;DHT22;36669;51.428;21.162;2022-08-26T12:53:47;36.60;50.80
44886;DHT22;36669;51.428;21.162;2022-08-26T12:59:23;36.70;49.90
44886;DHT22;36669;51.428;21.162;2022-08-26T13:01:50;36.80;50.40
44886;DHT22;36669;51.428;21.162;2022-08-26T13:07:24;36.40;47.10
44886;DHT22;36669;51.428;21.162;2022-08-26T13:09:55;36.80;46.40
44886;DHT22;36669;51.428;21.162;2022-08-26T13:12:32;37.10;47.40
44886;DHT22;36669;51.428;21.162;2022-08-26T13:15:03;37.00;47.10
44886;DHT22;36669;51.428;21.162;2022-08-26T13:17:29;35.70;47.60
44886;DHT22;36669;51.428;21.162;2022-08-26T13:19:56;35.20;47.80
44886;DHT22;36669;51.428;21.162;2022-08-26T13:22:22;34.70;48.90
44886;DHT22;36669;51.428;21.162;2022-08-26T13:24:54;34.20;48.80
44886;DHT22;36669;51.428;21.162;2022-08-26T13:27:23;34.40;49.90
44886;DHT22;36669;51.428;21.162;2022-08-26T13:29:50;34.40;50.00
44886;DHT22;36669;51.428;21.162;2022-08-26T13:32:16;34.10;49.50
44886;DHT22;36669;51.428;21.162;2022-08-26T13:34:44;34.10;49.80
44886;DHT22;36669;51.428;21.162;2022-08-26T13:37:11;34.20;49.90
44886;DHT22;36669;51.428;21.162;2022-08-26T13:39:36;33.90;50.90
44886;DHT22;36669;51.428;21.162;2022-08-26T13:42:02;34.40;50.60
44886;DHT22;36669;51.428;21.162;2022-08-26T13:44:29;34.80;50.00
44886;DHT22;36669;51.428;21.162;2022-08-26T13:46:54;35.20;49.80
44886;DHT22;36669;51.428;21.162;2022-08-26T13:49:20;35.80;47.80
44886;DHT22;36669;51.428;21.162;2022-08-26T13:51:45;36.30;47.00
44886;DHT22;36669;51.428;21.162;2022-08-26T13:54:11;36.90;47.20
44886;DHT22;36669;51.428;21.162;2022-08-26T13:56:37;37.40;45.60
44886;DHT22;36669;51.428;21.162;2022-08-26T13:59:02;37.80;45.80
44886;DHT22;36669;51.428;21.162;2022-08-26T14:01:29;38.00;44.50
44886;DHT22;36669;51.428;21.162;2022-08-26T14:03:57;38.50;44.80
44886;DHT22;36669;51.428;21.162;2022-08-26T14:06:23;38.30;45.70
44886;DHT22;36669;51.428;21.162;2022-08-26T14:08:48;38.50;45.00
44886;DHT22;36669;51.428;21.162;2022-08-26T14:11:14;38.10;43.60
44886;DHT22;36669;51.428;21.162;2022-08-26T14:13:39;38.00;43.30
44886;DHT22;36669;51.428;21.162;2022-08-26T14:16:10;38.40;43.90
44886;DHT22;36669;51.428;21.162;2022-08-26T14:18:38;39.10;44.10
44886;DHT22;36669;51.428;21.162;2022-08-26T14:21:05;40.00;43.00
44886;DHT22;36669;51.428;21.162;2022-08-26T14:23:31;40.40;41.70
44886;DHT22;36669;51.428;21.162;2022-08-26T14:25:57;40.60;41.50
44886;DHT22;36669;51.428;21.162;2022-08-26T14:28:22;39.90;41.00
44886;DHT22;36669;51.428;21.162;2022-08-26T14:30:52;40.10;43.40
44886;DHT22;36669;51.428;21.162;2022-08-26T14:33:26;39.70;41.70
44886;DHT22;36669;51.428;21.162;2022-08-26T14:35:52;39.40;41.40
44886;DHT22;36669;51.428;21.162;2022-08-26T14:38:18;39.50;41.20
44886;DHT22;36669;51.428;21.162;2022-08-26T14:40:44;39.40;41.20
44886;DHT22;36669;51.428;21.162;2022-08-26T14:43:11;39.50;40.20
44886;DHT22;36669;51.428;21.162;2022-08-26T14:45:41;39.80;40.40
44886;DHT22;36669;51.428;21.162;2022-08-26T14:48:07;40.30;40.20
44886;DHT22;36669;51.428;21.162;2022-08-26T14:50:32;40.70;40.50
44886;DHT22;36669;51.428;21.162;2022-08-26T14:52:58;40.70;39.80
44886;DHT22;36669;51.428;21.162;2022-08-26T14:55:23;40.50;39.90
44886;DHT22;36669;51.428;21.162;2022-08-26T14:57:49;39.80;39.10
44886;DHT22;36669;51.428;21.162;2022-08-26T15:00:15;39.90;39.40
44886;DHT22;36669;51.428;21.162;2022-08-26T15:02:40;39.50;39.30
44886;DHT22;36669;51.428;21.162;2022-08-26T15:05:07;39.50;39.30
44886;DHT22;36669;51.428;21.162;2022-08-26T15:07:35;39.40;40.80
44886;DHT22;36669;51.428;21.162;2022-08-26T15:10:01;39.30;40.40
44886;DHT22;36669;51.428;21.162;2022-08-26T15:12:26;39.60;39.70
44886;DHT22;36669;51.428;21.162;2022-08-26T15:14:52;39.60;39.80
44886;DHT22;36669;51.428;21.162;2022-08-26T15:17:17;39.80;40.30
44886;DHT22;36669;51.428;21.162;2022-08-26T15:19:43;40.20;39.50
44886;DHT22;36669;51.428;21.162;2022-08-26T15:22:08;40.30;39.80
44886;DHT22;36669;51.428;21.162;2022-08-26T15:24:34;40.20;39.00
44886;DHT22;36669;51.428;21.162;2022-08-26T15:26:59;40.30;38.90
44886;DHT22;36669;51.428;21.162;2022-08-26T15:29:25;39.60;39.30
44886;DHT22;36669;51.428;21.162;2022-08-26T15:31:51;39.30;40.30
44886;DHT22;36669;51.428;21.162;2022-08-26T15:34:18;38.90;39.70
44886;DHT22;36669;51.428;21.162;2022-08-26T15:36:45;39.10;40.30
44886;DHT22;36669;51.428;21.162;2022-08-26T15:39:12;38.80;39.80
44886;DHT22;36669;51.428;21.162;2022-08-26T15:41:38;38.00;39.90
44886;DHT22;36669;51.428;21.162;2022-08-26T15:44:06;38.50;40.80
44886;DHT22;36669;51.428;21.162;2022-08-26T15:46:32;38.40;40.90
44886;DHT22;36669;51.428;21.162;2022-08-26T15:48:57;38.60;40.90
44886;DHT22;36669;51.428;21.162;2022-08-26T15:53:50;38.50;40.10
44886;DHT22;36669;51.428;21.162;2022-08-26T15:56:16;38.00;40.20
44886;DHT22;36669;51.428;21.162;2022-08-26T15:58:42;38.00;41.70
44886;DHT22;36669;51.428;21.162;2022-08-26T16:01:08;38.00;40.80
44886;DHT22;36669;51.428;21.162;2022-08-26T16:03:34;37.70;41.30
44886;DHT22;36669;51.428;21.162;2022-08-26T16:05:59;37.40;41.40
44886;DHT22;36669;51.428;21.162;2022-08-26T16:08:25;37.50;41.00
44886;DHT22;36669;51.428;21.162;2022-08-26T16:10:52;37.80;41.30
44886;DHT22;36669;51.428;21.162;2022-08-26T16:13:19;38.00;41.30
44886;DHT22;36669;51.428;21.162;2022-08-26T16:15:46;37.40;41.40
44886;DHT22;36669;51.428;21.162;2022-08-26T16:18:12;37.70;41.90
44886;DHT22;36669;51.428;21.162;2022-08-26T16:20:47;37.50;41.90